Urb Monte Brisas 2, Puerto Rico
Current Conditions -  °F | °C
As of 4:53 AM on Monday 24 Nov 2014 (Local Time) from TJNR Reporting Station
Broken Clouds Broken Clouds  
Wind Chill: 80°   Ceiling: 5500
Heat Index: 84°   Visibility: 10mi
Dew Point: 72°   Wind: 9mph
Humidity: 76%   Direction: 90°E
Pressure: 30.02"   Gusts: 18mph
Location:  18.3304°N, 65.6573°W
Report Text: TJNR 240853Z AUTO 09008G16KT 10SM BKN055 BKN065 27/22 A3002 RMK AO2 SLP166 60000 T02670222 55002 $
Loading
Personal Weather Stations






























Interactive Weather Map New forecast layout! Learn more

10-Day Weather Forecast

Advertisements
Track Severe Weather on mobile